sensor_id;sensor_type;location;lat;lon;timestamp;pressure;altitude;pressure_sealevel;temperature;humidity
75640;BME280;64233;51.486;6.332;2024-01-07T00:01:49;154512.66;;;0.08;100.00
75640;BME280;64233;51.486;6.332;2024-01-07T00:04:15;154502.47;;;0.04;100.00
75640;BME280;64233;51.486;6.332;2024-01-07T00:06:40;154499.88;;;0.03;100.00
75640;BME280;64233;51.486;6.332;2024-01-07T00:09:05;154524.13;;;0.12;100.00
75640;BME280;64233;51.486;6.332;2024-01-07T00:11:31;154517.75;;;0.10;100.00
75640;BME280;64233;51.486;6.332;2024-01-07T00:13:56;154516.50;;;0.09;100.00
75640;BME280;64233;51.486;6.332;2024-01-07T00:16:21;154510.09;;;0.07;100.00
75640;BME280;64233;51.486;6.332;2024-01-07T00:18:46;154512.66;;;0.08;100.00
75640;BME280;64233;51.486;6.332;2024-01-07T00:21:12;154510.09;;;0.07;100.00
75640;BME280;64233;51.486;6.332;2024-01-07T00:23:37;154512.66;;;0.08;100.00
75640;BME280;64233;51.486;6.332;2024-01-07T00:26:03;154498.63;;;0.02;100.00
75640;BME280;64233;51.486;6.332;2024-01-07T00:28:28;154510.09;;;0.07;100.00
75640;BME280;64233;51.486;6.332;2024-01-07T00:30:54;154505.03;;;0.05;100.00
75640;BME280;64233;51.486;6.332;2024-01-07T00:33:19;154493.53;;;0.00;100.00
75640;BME280;64233;51.486;6.332;2024-01-07T00:35:44;154513.94;;;0.08;100.00
75640;BME280;64233;51.486;6.332;2024-01-07T00:38:09;154508.84;;;0.06;100.00
75640;BME280;64233;51.486;6.332;2024-01-07T00:40:35;154510.09;;;0.07;100.00
75640;BME280;64233;51.486;6.332;2024-01-07T00:43:00;154515.22;;;0.09;100.00
75640;BME280;64233;51.486;6.332;2024-01-07T00:45:25;154517.75;;;0.10;100.00
75640;BME280;64233;51.486;6.332;2024-01-07T00:47:50;154516.50;;;0.09;100.00
75640;BME280;64233;51.486;6.332;2024-01-07T00:50:17;154522.88;;;0.12;100.00
75640;BME280;64233;51.486;6.332;2024-01-07T00:52:42;154526.72;;;0.13;100.00
75640;BME280;64233;51.486;6.332;2024-01-07T00:55:08;154513.94;;;0.08;100.00
75640;BME280;64233;51.486;6.332;2024-01-07T00:57:34;154525.44;;;0.13;100.00
75640;BME280;64233;51.486;6.332;2024-01-07T01:00:00;154525.44;;;0.13;100.00
75640;BME280;64233;51.486;6.332;2024-01-07T01:02:29;154525.44;;;0.13;100.00
75640;BME280;64233;51.486;6.332;2024-01-07T01:04:55;154540.75;;;0.19;100.00
75640;BME280;64233;51.486;6.332;2024-01-07T01:07:20;154534.34;;;0.16;100.00
75640;BME280;64233;51.486;6.332;2024-01-07T01:09:45;154526.72;;;0.13;100.00
75640;BME280;64233;51.486;6.332;2024-01-07T01:12:11;154512.66;;;0.08;100.00
75640;BME280;64233;51.486;6.332;2024-01-07T01:14:36;154520.31;;;0.11;100.00
75640;BME280;64233;51.486;6.332;2024-01-07T01:17:01;154499.88;;;0.03;100.00
75640;BME280;64233;51.486;6.332;2024-01-07T01:19:28;154493.53;;;0.00;100.00
75640;BME280;64233;51.486;6.332;2024-01-07T01:21:53;154508.84;;;0.06;100.00
75640;BME280;64233;51.486;6.332;2024-01-07T01:24:20;154497.38;;;0.02;100.00
75640;BME280;64233;51.486;6.332;2024-01-07T01:26:45;154498.63;;;0.02;100.00
75640;BME280;64233;51.486;6.332;2024-01-07T01:29:10;154503.72;;;0.04;100.00
75640;BME280;64233;51.486;6.332;2024-01-07T01:31:36;154507.53;;;0.06;100.00
75640;BME280;64233;51.486;6.332;2024-01-07T01:37:24;154483.34;;;-0.04;100.00
75640;BME280;64233;51.486;6.332;2024-01-07T01:39:50;154485.84;;;-0.03;100.00
75640;BME280;64233;51.486;6.332;2024-01-07T01:42:16;154482.03;;;-0.05;100.00
75640;BME280;64233;51.486;6.332;2024-01-07T01:44:42;154494.81;;;0.01;100.00
75640;BME280;64233;51.486;6.332;2024-01-07T01:47:07;154497.38;;;0.02;100.00
75640;BME280;64233;51.486;6.332;2024-01-07T01:49:33;154508.84;;;0.06;100.00
75640;BME280;64233;51.486;6.332;2024-01-07T01:52:00;154513.94;;;0.08;100.00
75640;BME280;64233;51.486;6.332;2024-01-07T01:54:28;154507.53;;;0.06;100.00
75640;BME280;64233;51.486;6.332;2024-01-07T01:56:54;154499.88;;;0.03;100.00
75640;BME280;64233;51.486;6.332;2024-01-07T01:59:19;154499.88;;;0.03;100.00
75640;BME280;64233;51.486;6.332;2024-01-07T02:01:44;154484.59;;;-0.04;100.00
75640;BME280;64233;51.486;6.332;2024-01-07T02:04:11;154492.25;;;-0.01;100.00
75640;BME280;64233;51.486;6.332;2024-01-07T02:06:38;154493.53;;;0.00;100.00
75640;BME280;64233;51.486;6.332;2024-01-07T02:09:04;154494.81;;;0.01;100.00
75640;BME280;64233;51.486;6.332;2024-01-07T02:11:29;154502.47;;;0.04;100.00
75640;BME280;64233;51.486;6.332;2024-01-07T02:13:54;154502.47;;;0.04;100.00
75640;BME280;64233;51.486;6.332;2024-01-07T02:16:21;154496.06;;;0.01;100.00
75640;BME280;64233;51.486;6.332;2024-01-07T02:18:46;154516.50;;;0.09;100.00
75640;BME280;64233;51.486;6.332;2024-01-07T02:21:15;154508.84;;;0.06;100.00
75640;BME280;64233;51.486;6.332;2024-01-07T02:23:41;154502.47;;;0.04;100.00
75640;BME280;64233;51.486;6.332;2024-01-07T02:26:07;154492.25;;;-0.01;100.00
75640;BME280;64233;51.486;6.332;2024-01-07T02:28:33;154501.19;;;0.03;100.00
75640;BME280;64233;51.486;6.332;2024-01-07T02:31:00;154499.88;;;0.03;100.00
75640;BME280;64233;51.486;6.332;2024-01-07T02:33:26;154499.88;;;0.03;100.00
75640;BME280;64233;51.486;6.332;2024-01-07T02:35:51;154508.84;;;0.06;100.00
75640;BME280;64233;51.486;6.332;2024-01-07T02:38:16;154503.72;;;0.04;100.00
75640;BME280;64233;51.486;6.332;2024-01-07T02:40:42;154485.84;;;-0.03;100.00
75640;BME280;64233;51.486;6.332;2024-01-07T02:43:09;154487.16;;;-0.03;100.00
75640;BME280;64233;51.486;6.332;2024-01-07T02:45:34;154493.53;;;0.00;100.00
75640;BME280;64233;51.486;6.332;2024-01-07T02:47:59;154497.38;;;0.02;100.00
75640;BME280;64233;51.486;6.332;2024-01-07T02:50:25;154489.66;;;-0.02;100.00
75640;BME280;64233;51.486;6.332;2024-01-07T02:52:50;154482.03;;;-0.05;100.00
75640;BME280;64233;51.486;6.332;2024-01-07T02:55:15;154469.28;;;-0.10;100.00
75640;BME280;64233;51.486;6.332;2024-01-07T02:57:41;154476.94;;;-0.07;100.00
75640;BME280;64233;51.486;6.332;2024-01-07T03:00:06;154470.56;;;-0.09;100.00
75640;BME280;64233;51.486;6.332;2024-01-07T03:02:33;154460.34;;;-0.13;100.00
75640;BME280;64233;51.486;6.332;2024-01-07T03:04:58;154468.00;;;-0.10;100.00
75640;BME280;64233;51.486;6.332;2024-01-07T03:07:23;154478.19;;;-0.06;100.00
75640;BME280;64233;51.486;6.332;2024-01-07T03:09:49;154461.59;;;-0.13;100.00
75640;BME280;64233;51.486;6.332;2024-01-07T03:12:15;154468.00;;;-0.10;100.00
75640;BME280;64233;51.486;6.332;2024-01-07T03:14:41;154471.81;;;-0.09;100.00
75640;BME280;64233;51.486;6.332;2024-01-07T03:17:06;154457.78;;;-0.14;100.00
75640;BME280;64233;51.486;6.332;2024-01-07T03:19:32;154462.91;;;-0.12;100.00
75640;BME280;64233;51.486;6.332;2024-01-07T03:21:57;154464.16;;;-0.12;100.00
75640;BME280;64233;51.486;6.332;2024-01-07T03:24:23;154468.00;;;-0.10;100.00
75640;BME280;64233;51.486;6.332;2024-01-07T03:26:49;154464.16;;;-0.12;100.00
75640;BME280;64233;51.486;6.332;2024-01-07T03:29:15;154464.16;;;-0.12;100.00
75640;BME280;64233;51.486;6.332;2024-01-07T03:31:41;154459.09;;;-0.14;100.00
75640;BME280;64233;51.486;6.332;2024-01-07T03:34:08;154455.25;;;-0.15;100.00
75640;BME280;64233;51.486;6.332;2024-01-07T03:36:33;154466.72;;;-0.11;100.00
75640;BME280;64233;51.486;6.332;2024-01-07T03:38:58;154482.03;;;-0.05;100.00
75640;BME280;64233;51.486;6.332;2024-01-07T03:41:24;154462.91;;;-0.12;100.00
75640;BME280;64233;51.486;6.332;2024-01-07T03:43:49;154459.09;;;-0.14;100.00
75640;BME280;64233;51.486;6.332;2024-01-07T03:46:16;154464.16;;;-0.12;100.00
75640;BME280;64233;51.486;6.332;2024-01-07T03:48:42;154438.66;;;-0.22;100.00
75640;BME280;64233;51.486;6.332;2024-01-07T03:51:07;154439.91;;;-0.22;100.00
75640;BME280;64233;51.486;6.332;2024-01-07T03:53:33;154447.56;;;-0.19;100.00
75640;BME280;64233;51.486;6.332;2024-01-07T03:55:58;154437.41;;;-0.23;100.00
75640;BME280;64233;51.486;6.332;2024-01-07T03:58:24;154443.75;;;-0.20;100.00
75640;BME280;64233;51.486;6.332;2024-01-07T04:00:49;154446.31;;;-0.19;100.00
75640;BME280;64233;51.486;6.332;2024-01-07T04:03:14;154437.41;;;-0.23;100.00
75640;BME280;64233;51.486;6.332;2024-01-07T04:05:39;154437.41;;;-0.23;100.00
75640;BME280;64233;51.486;6.332;2024-01-07T04:08:05;154447.56;;;-0.19;100.00
75640;BME280;64233;51.486;6.332;2024-01-07T04:10:30;154443.75;;;-0.20;100.00
75640;BME280;64233;51.486;6.332;2024-01-07T04:12:56;154443.75;;;-0.20;100.00
75640;BME280;64233;51.486;6.332;2024-01-07T04:15:21;154460.34;;;-0.13;100.00
75640;BME280;64233;51.486;6.332;2024-01-07T04:17:46;154453.94;;;-0.16;100.00
75640;BME280;64233;51.486;6.332;2024-01-07T04:20:15;154429.69;;;-0.26;100.00
75640;BME280;64233;51.486;6.332;2024-01-07T04:22:40;154443.75;;;-0.20;100.00
75640;BME280;64233;51.486;6.332;2024-01-07T04:25:06;154437.41;;;-0.23;100.00
75640;BME280;64233;51.486;6.332;2024-01-07T04:27:35;154436.09;;;-0.23;100.00
75640;BME280;64233;51.486;6.332;2024-01-07T04:30:01;154436.09;;;-0.23;100.00
75640;BME280;64233;51.486;6.332;2024-01-07T04:32:27;154439.91;;;-0.22;100.00
75640;BME280;64233;51.486;6.332;2024-01-07T04:34:52;154448.88;;;-0.18;100.00
75640;BME280;64233;51.486;6.332;2024-01-07T04:37:17;154446.31;;;-0.19;100.00
75640;BME280;64233;51.486;6.332;2024-01-07T04:39:43;154441.22;;;-0.21;100.00
75640;BME280;64233;51.486;6.332;2024-01-07T04:42:08;154447.56;;;-0.19;100.00
75640;BME280;64233;51.486;6.332;2024-01-07T04:44:33;154432.28;;;-0.25;100.00
75640;BME280;64233;51.486;6.332;2024-01-07T04:46:58;154438.66;;;-0.22;100.00
75640;BME280;64233;51.486;6.332;2024-01-07T04:49:24;154420.78;;;-0.29;100.00
75640;BME280;64233;51.486;6.332;2024-01-07T04:51:49;154424.63;;;-0.28;100.00
75640;BME280;64233;51.486;6.332;2024-01-07T04:54:14;154424.63;;;-0.28;100.00
75640;BME280;64233;51.486;6.332;2024-01-07T04:56:39;154404.19;;;-0.36;100.00
75640;BME280;64233;51.486;6.332;2024-01-07T04:59:05;154406.75;;;-0.35;100.00
75640;BME280;64233;51.486;6.332;2024-01-07T05:01:32;154399.13;;;-0.38;100.00
75640;BME280;64233;51.486;6.332;2024-01-07T05:03:58;154396.56;;;-0.39;100.00
75640;BME280;64233;51.486;6.332;2024-01-07T05:06:23;154404.19;;;-0.36;100.00
75640;BME280;64233;51.486;6.332;2024-01-07T05:08:48;154394.00;;;-0.40;100.00
75640;BME280;64233;51.486;6.332;2024-01-07T05:11:16;154400.38;;;-0.38;100.00
75640;BME280;64233;51.486;6.332;2024-01-07T05:13:42;154400.38;;;-0.38;100.00
75640;BME280;64233;51.486;6.332;2024-01-07T05:16:07;154396.56;;;-0.39;100.00
75640;BME280;64233;51.486;6.332;2024-01-07T05:18:33;154406.75;;;-0.35;100.00
75640;BME280;64233;51.486;6.332;2024-01-07T05:20:58;154382.53;;;-0.45;100.00
75640;BME280;64233;51.486;6.332;2024-01-07T05:23:23;154372.31;;;-0.49;100.00
75640;BME280;64233;51.486;6.332;2024-01-07T05:25:48;154376.13;;;-0.47;100.00
75640;BME280;64233;51.486;6.332;2024-01-07T05:28:17;154378.69;;;-0.46;100.00
75640;BME280;64233;51.486;6.332;2024-01-07T05:30:46;154373.56;;;-0.48;100.00
75640;BME280;64233;51.486;6.332;2024-01-07T05:33:11;154364.66;;;-0.52;100.00
75640;BME280;64233;51.486;6.332;2024-01-07T05:35:36;154379.97;;;-0.46;100.00
75640;BME280;64233;51.486;6.332;2024-01-07T05:38:01;154373.56;;;-0.48;100.00
75640;BME280;64233;51.486;6.332;2024-01-07T05:40:27;154377.41;;;-0.47;100.00
75640;BME280;64233;51.486;6.332;2024-01-07T05:42:52;154374.88;;;-0.48;100.00
75640;BME280;64233;51.486;6.332;2024-01-07T05:45:17;154387.59;;;-0.43;100.00
75640;BME280;64233;51.486;6.332;2024-01-07T05:47:43;154364.66;;;-0.52;100.00
75640;BME280;64233;51.486;6.332;2024-01-07T05:50:08;154364.66;;;-0.52;100.00
75640;BME280;64233;51.486;6.332;2024-01-07T05:52:37;154371.06;;;-0.49;100.00
75640;BME280;64233;51.486;6.332;2024-01-07T05:55:02;154382.53;;;-0.45;100.00
75640;BME280;64233;51.486;6.332;2024-01-07T05:57:28;154372.31;;;-0.49;100.00
75640;BME280;64233;51.486;6.332;2024-01-07T05:59:53;154373.56;;;-0.48;100.00
75640;BME280;64233;51.486;6.332;2024-01-07T06:02:18;154365.94;;;-0.52;100.00
75640;BME280;64233;51.486;6.332;2024-01-07T06:04:44;154367.22;;;-0.51;100.00
75640;BME280;64233;51.486;6.332;2024-01-07T06:07:09;154360.84;;;-0.54;100.00
75640;BME280;64233;51.486;6.332;2024-01-07T06:09:34;154365.94;;;-0.52;100.00
75640;BME280;64233;51.486;6.332;2024-01-07T06:12:00;154364.66;;;-0.52;100.00
75640;BME280;64233;51.486;6.332;2024-01-07T06:14:25;154345.50;;;-0.60;100.00
75640;BME280;64233;51.486;6.332;2024-01-07T06:16:51;154332.78;;;-0.65;100.00
75640;BME280;64233;51.486;6.332;2024-01-07T06:19:17;154336.59;;;-0.63;100.00
75640;BME280;64233;51.486;6.332;2024-01-07T06:21:42;154337.84;;;-0.63;100.00
75640;BME280;64233;51.486;6.332;2024-01-07T06:24:08;154331.47;;;-0.65;100.00
75640;BME280;64233;51.486;6.332;2024-01-07T06:26:34;154328.97;;;-0.66;100.00
75640;BME280;64233;51.486;6.332;2024-01-07T06:28:59;154328.97;;;-0.66;100.00
75640;BME280;64233;51.486;6.332;2024-01-07T06:31:25;154325.13;;;-0.68;100.00
75640;BME280;64233;51.486;6.332;2024-01-07T06:33:51;154320.00;;;-0.70;100.00
75640;BME280;64233;51.486;6.332;2024-01-07T06:36:16;154322.56;;;-0.69;100.00
75640;BME280;64233;51.486;6.332;2024-01-07T06:38:44;154321.25;;;-0.70;100.00
75640;BME280;64233;51.486;6.332;2024-01-07T06:41:11;154313.63;;;-0.73;100.00
75640;BME280;64233;51.486;6.332;2024-01-07T06:43:38;154330.22;;;-0.66;100.00
75640;BME280;64233;51.486;6.332;2024-01-07T06:46:03;154332.78;;;-0.65;100.00
75640;BME280;64233;51.486;6.332;2024-01-07T06:48:29;154323.81;;;-0.68;100.00
75640;BME280;64233;51.486;6.332;2024-01-07T06:50:54;154326.41;;;-0.67;100.00
75640;BME280;64233;51.486;6.332;2024-01-07T06:53:20;154323.81;;;-0.68;100.00
75640;BME280;64233;51.486;6.332;2024-01-07T06:55:46;154330.22;;;-0.66;100.00
75640;BME280;64233;51.486;6.332;2024-01-07T06:58:11;154326.41;;;-0.67;100.00
75640;BME280;64233;51.486;6.332;2024-01-07T07:00:37;154321.25;;;-0.70;100.00
75640;BME280;64233;51.486;6.332;2024-01-07T07:03:02;154320.00;;;-0.70;100.00
75640;BME280;64233;51.486;6.332;2024-01-07T07:05:27;154318.75;;;-0.71;100.00
75640;BME280;64233;51.486;6.332;2024-01-07T07:07:52;154308.53;;;-0.75;100.00
75640;BME280;64233;51.486;6.332;2024-01-07T07:10:18;154311.09;;;-0.74;100.00
75640;BME280;64233;51.486;6.332;2024-01-07T07:12:43;154300.91;;;-0.78;100.00
75640;BME280;64233;51.486;6.332;2024-01-07T07:15:08;154299.59;;;-0.78;100.00
75640;BME280;64233;51.486;6.332;2024-01-07T07:17:35;154290.69;;;-0.82;100.00
75640;BME280;64233;51.486;6.332;2024-01-07T07:20:01;154302.16;;;-0.77;100.00
75640;BME280;64233;51.486;6.332;2024-01-07T07:22:26;154291.94;;;-0.81;100.00
75640;BME280;64233;51.486;6.332;2024-01-07T07:24:51;154299.59;;;-0.78;100.00
75640;BME280;64233;51.486;6.332;2024-01-07T07:27:16;154246.06;;;-0.77;100.00
75640;BME280;64233;51.486;6.332;2024-01-07T07:29:42;154305.97;;;-0.76;100.00
75640;BME280;64233;51.486;6.332;2024-01-07T07:32:07;154311.09;;;-0.74;100.00
75640;BME280;64233;51.486;6.332;2024-01-07T07:34:32;154304.34;;;-0.73;100.00
75640;BME280;64233;51.486;6.332;2024-01-07T07:36:58;154309.69;;;-0.73;100.00
75640;BME280;64233;51.486;6.332;2024-01-07T07:39:23;154180.72;;;-0.78;100.00
75640;BME280;64233;51.486;6.332;2024-01-07T07:41:48;154304.72;;;-0.76;100.00
75640;BME280;64233;51.486;6.332;2024-01-07T07:44:14;154313.63;;;-0.73;100.00
75640;BME280;64233;51.486;6.332;2024-01-07T07:46:39;154300.91;;;-0.78;100.00
75640;BME280;64233;51.486;6.332;2024-01-07T07:49:04;154305.97;;;-0.76;100.00
75640;BME280;64233;51.486;6.332;2024-01-07T07:51:29;154299.59;;;-0.78;100.00
75640;BME280;64233;51.486;6.332;2024-01-07T07:53:55;154293.22;;;-0.81;100.00
75640;BME280;64233;51.486;6.332;2024-01-07T07:56:21;154300.91;;;-0.78;100.00
75640;BME280;64233;51.486;6.332;2024-01-07T07:58:46;154285.56;;;-0.84;100.00
75640;BME280;64233;51.486;6.332;2024-01-07T08:01:11;154262.19;;;-0.78;100.00
75640;BME280;64233;51.486;6.332;2024-01-07T08:03:37;154290.69;;;-0.82;100.00
75640;BME280;64233;51.486;6.332;2024-01-07T08:06:02;154231.47;;;-0.78;100.00
75640;BME280;64233;51.486;6.332;2024-01-07T08:08:27;154300.91;;;-0.78;100.00
75640;BME280;64233;51.486;6.332;2024-01-07T08:10:53;154019.03;;;-0.88;100.00
75640;BME280;64233;51.486;6.332;2024-01-07T08:13:19;153557.41;;;-0.79;100.00
75640;BME280;64233;51.486;6.332;2024-01-07T08:15:44;152242.53;;;-0.88;100.00
75640;BME280;64233;51.486;6.332;2024-01-07T08:18:09;153198.22;;;-0.79;100.00
75640;BME280;64233;51.486;6.332;2024-01-07T08:20:35;151486.81;;;-0.84;100.00
75640;BME280;64233;51.486;6.332;2024-01-07T08:23:00;150607.75;;;-0.85;100.00
75640;BME280;64233;51.486;6.332;2024-01-07T08:25:25;151293.25;;;-0.84;100.00
75640;BME280;64233;51.486;6.332;2024-01-07T08:27:50;150798.03;;;-0.82;100.00
75640;BME280;64233;51.486;6.332;2024-01-07T08:30:16;150269.63;;;-0.81;100.00
75640;BME280;64233;51.486;6.332;2024-01-07T08:32:41;150223.03;;;-0.82;100.00
75640;BME280;64233;51.486;6.332;2024-01-07T08:35:06;149905.38;;;-0.81;100.00
75640;BME280;64233;51.486;6.332;2024-01-07T08:37:32;149581.78;;;-0.83;100.00
75640;BME280;64233;51.486;6.332;2024-01-07T08:39:58;149219.06;;;-0.83;100.00
75640;BME280;64233;51.486;6.332;2024-01-07T08:42:24;148905.56;;;-0.83;100.00
75640;BME280;64233;51.486;6.332;2024-01-07T08:44:49;149575.44;;;-0.85;100.00
75640;BME280;64233;51.486;6.332;2024-01-07T08:47:15;149643.16;;;-0.83;100.00
75640;BME280;64233;51.486;6.332;2024-01-07T08:49:40;149208.97;;;-0.87;100.00
75640;BME280;64233;51.486;6.332;2024-01-07T08:52:05;149209.00;;;-0.80;100.00
75640;BME280;64233;51.486;6.332;2024-01-07T08:54:30;149354.25;;;-0.86;100.00
75640;BME280;64233;51.486;6.332;2024-01-07T08:56:56;148731.22;;;-0.84;100.00
75640;BME280;64233;51.486;6.332;2024-01-07T08:59:21;148909.31;;;-0.95;100.00
75640;BME280;64233;51.486;6.332;2024-01-07T09:01:47;148836.50;;;-0.97;100.00
75640;BME280;64233;51.486;6.332;2024-01-07T09:04:12;148458.31;;;-0.99;100.00
75640;BME280;64233;51.486;6.332;2024-01-07T09:06:37;148121.03;;;-0.99;100.00
75640;BME280;64233;51.486;6.332;2024-01-07T09:09:03;147930.50;;;-0.99;100.00
75640;BME280;64233;51.486;6.332;2024-01-07T09:11:32;147545.72;;;-1.01;100.00
75640;BME280;64233;51.486;6.332;2024-01-07T09:13:57;147488.97;;;-1.04;100.00
75640;BME280;64233;51.486;6.332;2024-01-07T09:16:22;146498.44;;;-1.07;100.00
75640;BME280;64233;51.486;6.332;2024-01-07T09:18:47;146114.56;;;-1.06;100.00
75640;BME280;64233;51.486;6.332;2024-01-07T09:21:13;145790.00;;;-1.02;100.00
75640;BME280;64233;51.486;6.332;2024-01-07T09:23:39;145783.97;;;-1.05;100.00
75640;BME280;64233;51.486;6.332;2024-01-07T09:26:04;145248.56;;;-1.05;100.00
75640;BME280;64233;51.486;6.332;2024-01-07T09:28:29;145798.38;;;-0.98;100.00
75640;BME280;64233;51.486;6.332;2024-01-07T09:30:55;145110.41;;;-1.01;100.00
75640;BME280;64233;51.486;6.332;2024-01-07T09:33:20;144944.53;;;-1.08;100.00
75640;BME280;64233;51.486;6.332;2024-01-07T09:35:48;145059.59;;;-1.10;100.00
75640;BME280;64233;51.486;6.332;2024-01-07T09:38:14;145027.75;;;-1.06;100.00
75640;BME280;64233;51.486;6.332;2024-01-07T09:40:39;144748.00;;;-1.10;100.00
75640;BME280;64233;51.486;6.332;2024-01-07T09:43:05;144253.88;;;-1.10;100.00
75640;BME280;64233;51.486;6.332;2024-01-07T09:45:31;144067.50;;;-1.10;100.00
75640;BME280;64233;51.486;6.332;2024-01-07T09:47:59;144525.50;;;-1.10;100.00
75640;BME280;64233;51.486;6.332;2024-01-07T09:50:24;144088.78;;;-1.14;100.00
75640;BME280;64233;51.486;6.332;2024-01-07T09:52:56;144390.88;;;-1.09;100.00
75640;BME280;64233;51.486;6.332;2024-01-07T09:55:26;144415.47;;;-1.07;100.00
75640;BME280;64233;51.486;6.332;2024-01-07T09:57:55;144410.72;;;-1.09;100.00
75640;BME280;64233;51.486;6.332;2024-01-07T10:00:20;144087.56;;;-1.15;100.00
75640;BME280;64233;51.486;6.332;2024-01-07T10:02:45;144035.25;;;-1.13;100.00
75640;BME280;64233;51.486;6.332;2024-01-07T10:05:11;144448.22;;;-1.14;100.00
75640;BME280;64233;51.486;6.332;2024-01-07T10:07:36;144219.78;;;-1.16;100.00
75640;BME280;64233;51.486;6.332;2024-01-07T10:10:13;144134.56;;;-1.16;100.00
75640;BME280;64233;51.486;6.332;2024-01-07T10:12:39;144025.66;;;-1.22;100.00
75640;BME280;64233;51.486;6.332;2024-01-07T10:15:04;144227.22;;;-1.14;100.00
75640;BME280;64233;51.486;6.332;2024-01-07T10:17:30;143087.53;;;-1.18;100.00
75640;BME280;64233;51.486;6.332;2024-01-07T10:19:55;143149.03;;;-1.14;100.00
75640;BME280;64233;51.486;6.332;2024-01-07T10:22:21;142475.00;;;-1.12;100.00
75640;BME280;64233;51.486;6.332;2024-01-07T10:24:46;141615.91;;;-1.18;100.00
75640;BME280;64233;51.486;6.332;2024-01-07T10:27:14;142020.47;;;-1.10;100.00
75640;BME280;64233;51.486;6.332;2024-01-07T10:29:39;141329.91;;;-1.14;100.00
75640;BME280;64233;51.486;6.332;2024-01-07T10:32:05;140064.69;;;-1.17;100.00
75640;BME280;64233;51.486;6.332;2024-01-07T10:34:35;140330.09;;;-1.11;100.00
75640;BME280;64233;51.486;6.332;2024-01-07T10:37:02;139986.81;;;-1.15;100.00
75640;BME280;64233;51.486;6.332;2024-01-07T10:39:28;140083.16;;;-1.09;100.00
75640;BME280;64233;51.486;6.332;2024-01-07T10:41:54;140162.16;;;-1.10;100.00
75640;BME280;64233;51.486;6.332;2024-01-07T10:44:40;140315.66;;;-1.12;100.00
75640;BME280;64233;51.486;6.332;2024-01-07T10:47:06;140458.59;;;-1.10;100.00
75640;BME280;64233;51.486;6.332;2024-01-07T10:49:35;139788.25;;;-1.10;100.00
75640;BME280;64233;51.486;6.332;2024-01-07T10:52:05;139945.53;;;-1.11;100.00
75640;BME280;64233;51.486;6.332;2024-01-07T10:54:32;140029.50;;;-1.11;100.00
75640;BME280;64233;51.486;6.332;2024-01-07T10:57:19;140449.59;;;-0.95;100.00
75640;BME280;64233;51.486;6.332;2024-01-07T10:59:47;139588.47;;;-1.05;100.00
75640;BME280;64233;51.486;6.332;2024-01-07T11:02:12;140334.09;;;-1.04;100.00
75640;BME280;64233;51.486;6.332;2024-01-07T11:04:47;140272.38;;;-1.10;100.00
75640;BME280;64233;51.486;6.332;2024-01-07T11:07:34;140116.34;;;-1.16;100.00
75640;BME280;64233;51.486;6.332;2024-01-07T11:10:10;139008.81;;;-1.24;100.00
75640;BME280;64233;51.486;6.332;2024-01-07T11:12:37;138271.28;;;-1.28;100.00
75640;BME280;64233;51.486;6.332;2024-01-07T11:15:03;138233.31;;;-1.30;100.00
75640;BME280;64233;51.486;6.332;2024-01-07T11:20:07;138881.91;;;-1.30;100.00
75640;BME280;64233;51.486;6.332;2024-01-07T11:22:35;138171.06;;;-1.30;100.00
75640;BME280;64233;51.486;6.332;2024-01-07T11:25:01;138144.50;;;-1.37;100.00
75640;BME280;64233;51.486;6.332;2024-01-07T11:27:31;137461.09;;;-1.33;100.00
75640;BME280;64233;51.486;6.332;2024-01-07T11:29:58;137613.94;;;-1.19;100.00
75640;BME280;64233;51.486;6.332;2024-01-07T11:32:29;137372.78;;;-1.17;100.00
75640;BME280;64233;51.486;6.332;2024-01-07T11:34:54;136895.44;;;-1.13;100.00
75640;BME280;64233;51.486;6.332;2024-01-07T11:37:22;136699.22;;;-1.18;100.00
75640;BME280;64233;51.486;6.332;2024-01-07T11:39:50;136606.53;;;-1.15;100.00
75640;BME280;64233;51.486;6.332;2024-01-07T11:42:16;135963.72;;;-1.23;100.00
75640;BME280;64233;51.486;6.332;2024-01-07T11:44:51;135200.25;;;-1.17;100.00
75640;BME280;64233;51.486;6.332;2024-01-07T11:47:18;135224.84;;;-1.15;100.00
75640;BME280;64233;51.486;6.332;2024-01-07T11:49:44;134264.56;;;-1.18;100.00
75640;BME280;64233;51.486;6.332;2024-01-07T11:52:09;135370.19;;;-1.23;100.00
75640;BME280;64233;51.486;6.332;2024-01-07T11:54:38;134699.94;;;-1.21;100.00
75640;BME280;64233;51.486;6.332;2024-01-07T11:57:05;133869.09;;;-1.22;100.00
75640;BME280;64233;51.486;6.332;2024-01-07T11:59:30;132837.19;;;-1.24;100.00
75640;BME280;64233;51.486;6.332;2024-01-07T12:01:55;132091.88;;;-1.23;100.00
75640;BME280;64233;51.486;6.332;2024-01-07T12:04:21;131198.94;;;-1.26;100.00
75640;BME280;64233;51.486;6.332;2024-01-07T12:06:47;131189.97;;;-1.24;100.00
75640;BME280;64233;51.486;6.332;2024-01-07T12:09:13;131371.44;;;-1.26;100.00
75640;BME280;64233;51.486;6.332;2024-01-07T12:11:39;131162.94;;;-1.23;100.00
75640;BME280;64233;51.486;6.332;2024-01-07T12:14:06;130401.41;;;-1.23;100.00
75640;BME280;64233;51.486;6.332;2024-01-07T12:16:35;129512.59;;;-1.28;100.00
75640;BME280;64233;51.486;6.332;2024-01-07T12:19:01;129093.03;;;-1.19;100.00
75640;BME280;64233;51.486;6.332;2024-01-07T12:21:26;127634.47;;;-1.24;100.00
75640;BME280;64233;51.486;6.332;2024-01-07T12:23:54;127467.22;;;-1.16;100.00
75640;BME280;64233;51.486;6.332;2024-01-07T12:26:19;127124.78;;;-1.21;100.00
75640;BME280;64233;51.486;6.332;2024-01-07T12:28:52;126868.59;;;-1.17;100.00
75640;BME280;64233;51.486;6.332;2024-01-07T12:31:17;126990.94;;;-1.13;100.00
75640;BME280;64233;51.486;6.332;2024-01-07T12:33:42;126950.94;;;-1.23;100.00
75640;BME280;64233;51.486;6.332;2024-01-07T12:36:08;125998.69;;;-1.31;100.00
75640;BME280;64233;51.486;6.332;2024-01-07T12:38:36;124641.66;;;-1.32;100.00
75640;BME280;64233;51.486;6.332;2024-01-07T12:41:02;125069.72;;;-1.24;100.00
75640;BME280;64233;51.486;6.332;2024-01-07T12:43:27;125139.31;;;-1.18;100.00